sensor_id;sensor_type;location;lat;lon;timestamp;P1;durP1;ratioP1;P2;durP2;ratioP2
28311;SDS011;15572;48.810;9.148;2024-01-15T00:01:21;19.17;;;8.27;;
28311;SDS011;15572;48.810;9.148;2024-01-15T00:06:18;23.57;;;7.73;;
28311;SDS011;15572;48.810;9.148;2024-01-15T00:11:15;23.70;;;8.83;;
28311;SDS011;15572;48.810;9.148;2024-01-15T00:16:13;22.93;;;9.27;;
28311;SDS011;15572;48.810;9.148;2024-01-15T00:21:09;22.10;;;9.03;;
28311;SDS011;15572;48.810;9.148;2024-01-15T00:26:05;27.97;;;10.13;;
28311;SDS011;15572;48.810;9.148;2024-01-15T00:31:02;22.27;;;9.70;;
28311;SDS011;15572;48.810;9.148;2024-01-15T00:36:00;21.10;;;9.33;;
28311;SDS011;15572;48.810;9.148;2024-01-15T00:40:56;13.23;;;4.50;;
28311;SDS011;15572;48.810;9.148;2024-01-15T00:45:53;21.30;;;9.27;;
28311;SDS011;15572;48.810;9.148;2024-01-15T00:50:49;23.30;;;9.27;;
28311;SDS011;15572;48.810;9.148;2024-01-15T00:55:47;15.80;;;6.63;;
28311;SDS011;15572;48.810;9.148;2024-01-15T01:00:44;21.13;;;8.40;;
28311;SDS011;15572;48.810;9.148;2024-01-15T01:05:40;21.47;;;8.27;;
28311;SDS011;15572;48.810;9.148;2024-01-15T01:10:37;20.23;;;7.90;;
28311;SDS011;15572;48.810;9.148;2024-01-15T01:15:35;20.33;;;8.73;;
28311;SDS011;15572;48.810;9.148;2024-01-15T01:20:31;13.60;;;6.20;;
28311;SDS011;15572;48.810;9.148;2024-01-15T01:25:28;16.33;;;7.27;;
28311;SDS011;15572;48.810;9.148;2024-01-15T01:30:24;18.57;;;7.87;;
28311;SDS011;15572;48.810;9.148;2024-01-15T01:35:22;14.07;;;6.03;;
28311;SDS011;15572;48.810;9.148;2024-01-15T01:40:18;16.70;;;7.63;;
28311;SDS011;15572;48.810;9.148;2024-01-15T01:45:15;17.70;;;7.57;;
28311;SDS011;15572;48.810;9.148;2024-01-15T01:50:12;19.60;;;7.23;;
28311;SDS011;15572;48.810;9.148;2024-01-15T01:55:10;18.13;;;8.33;;
28311;SDS011;15572;48.810;9.148;2024-01-15T02:00:09;18.53;;;7.10;;
28311;SDS011;15572;48.810;9.148;2024-01-15T02:05:06;20.50;;;7.83;;
28311;SDS011;15572;48.810;9.148;2024-01-15T02:10:04;21.23;;;8.40;;
28311;SDS011;15572;48.810;9.148;2024-01-15T02:15:03;20.83;;;7.73;;
28311;SDS011;15572;48.810;9.148;2024-01-15T02:20:00;20.47;;;7.87;;
28311;SDS011;15572;48.810;9.148;2024-01-15T02:24:58;16.60;;;7.20;;
28311;SDS011;15572;48.810;9.148;2024-01-15T02:29:54;17.77;;;7.17;;
28311;SDS011;15572;48.810;9.148;2024-01-15T02:34:52;18.57;;;8.13;;
28311;SDS011;15572;48.810;9.148;2024-01-15T02:39:48;19.77;;;8.47;;
28311;SDS011;15572;48.810;9.148;2024-01-15T02:44:46;20.83;;;7.53;;
28311;SDS011;15572;48.810;9.148;2024-01-15T02:49:43;16.33;;;6.90;;
28311;SDS011;15572;48.810;9.148;2024-01-15T02:54:40;17.37;;;7.63;;
28311;SDS011;15572;48.810;9.148;2024-01-15T02:59:36;19.40;;;8.00;;
28311;SDS011;15572;48.810;9.148;2024-01-15T03:04:34;18.53;;;7.07;;
28311;SDS011;15572;48.810;9.148;2024-01-15T03:09:30;20.37;;;7.90;;
28311;SDS011;15572;48.810;9.148;2024-01-15T03:14:26;18.13;;;8.27;;
28311;SDS011;15572;48.810;9.148;2024-01-15T03:19:23;17.20;;;7.60;;
28311;SDS011;15572;48.810;9.148;2024-01-15T03:24:21;16.17;;;6.83;;
28311;SDS011;15572;48.810;9.148;2024-01-15T03:29:17;16.40;;;7.70;;
28311;SDS011;15572;48.810;9.148;2024-01-15T03:34:13;16.33;;;7.27;;
28311;SDS011;15572;48.810;9.148;2024-01-15T03:39:10;19.67;;;7.67;;
28311;SDS011;15572;48.810;9.148;2024-01-15T03:44:08;18.10;;;7.57;;
28311;SDS011;15572;48.810;9.148;2024-01-15T03:49:04;18.33;;;7.40;;
28311;SDS011;15572;48.810;9.148;2024-01-15T03:54:00;16.80;;;7.33;;
28311;SDS011;15572;48.810;9.148;2024-01-15T03:58:57;16.90;;;7.67;;
28311;SDS011;15572;48.810;9.148;2024-01-15T04:03:55;17.43;;;6.60;;
28311;SDS011;15572;48.810;9.148;2024-01-15T04:08:51;14.77;;;7.03;;
28311;SDS011;15572;48.810;9.148;2024-01-15T04:13:47;14.60;;;6.53;;
28311;SDS011;15572;48.810;9.148;2024-01-15T04:18:44;14.03;;;3.97;;
28311;SDS011;15572;48.810;9.148;2024-01-15T04:23:42;7.83;;;3.73;;
28311;SDS011;15572;48.810;9.148;2024-01-15T04:28:38;14.73;;;6.03;;
28311;SDS011;15572;48.810;9.148;2024-01-15T04:33:35;10.37;;;4.67;;
28311;SDS011;15572;48.810;9.148;2024-01-15T04:38:31;10.40;;;4.80;;
28311;SDS011;15572;48.810;9.148;2024-01-15T04:43:29;14.93;;;6.43;;
28311;SDS011;15572;48.810;9.148;2024-01-15T04:48:26;11.80;;;4.37;;
28311;SDS011;15572;48.810;9.148;2024-01-15T04:53:22;11.47;;;5.37;;
28311;SDS011;15572;48.810;9.148;2024-01-15T04:58:18;8.80;;;3.97;;
28311;SDS011;15572;48.810;9.148;2024-01-15T05:03:16;11.37;;;5.60;;
28311;SDS011;15572;48.810;9.148;2024-01-15T05:08:13;12.47;;;5.37;;
28311;SDS011;15572;48.810;9.148;2024-01-15T05:13:09;12.30;;;5.90;;
28311;SDS011;15572;48.810;9.148;2024-01-15T05:18:05;14.23;;;4.00;;
28311;SDS011;15572;48.810;9.148;2024-01-15T05:23:03;9.77;;;5.17;;
28311;SDS011;15572;48.810;9.148;2024-01-15T05:28:00;11.17;;;5.23;;
28311;SDS011;15572;48.810;9.148;2024-01-15T05:32:56;11.60;;;5.33;;
28311;SDS011;15572;48.810;9.148;2024-01-15T05:37:55;5.23;;;2.60;;
28311;SDS011;15572;48.810;9.148;2024-01-15T05:42:52;9.87;;;4.37;;
28311;SDS011;15572;48.810;9.148;2024-01-15T05:47:49;12.77;;;5.63;;
28311;SDS011;15572;48.810;9.148;2024-01-15T05:52:45;11.70;;;5.30;;
28311;SDS011;15572;48.810;9.148;2024-01-15T05:57:42;12.00;;;5.90;;
28311;SDS011;15572;48.810;9.148;2024-01-15T06:02:39;7.43;;;3.93;;
28311;SDS011;15572;48.810;9.148;2024-01-15T06:07:36;12.97;;;5.23;;
28311;SDS011;15572;48.810;9.148;2024-01-15T06:12:32;8.53;;;4.27;;
28311;SDS011;15572;48.810;9.148;2024-01-15T06:17:29;9.83;;;3.87;;
28311;SDS011;15572;48.810;9.148;2024-01-15T06:22:27;12.33;;;5.20;;
28311;SDS011;15572;48.810;9.148;2024-01-15T06:27:24;6.83;;;2.87;;
28311;SDS011;15572;48.810;9.148;2024-01-15T06:32:20;13.30;;;6.03;;
28311;SDS011;15572;48.810;9.148;2024-01-15T06:37:16;14.30;;;6.83;;
28311;SDS011;15572;48.810;9.148;2024-01-15T06:42:16;9.00;;;4.90;;
28311;SDS011;15572;48.810;9.148;2024-01-15T06:47:12;11.60;;;5.53;;
28311;SDS011;15572;48.810;9.148;2024-01-15T06:52:09;13.03;;;6.80;;
28311;SDS011;15572;48.810;9.148;2024-01-15T06:57:07;15.37;;;3.87;;
28311;SDS011;15572;48.810;9.148;2024-01-15T07:02:05;8.37;;;5.03;;
28311;SDS011;15572;48.810;9.148;2024-01-15T07:07:01;11.20;;;5.60;;
28311;SDS011;15572;48.810;9.148;2024-01-15T07:11:57;13.50;;;6.07;;
28311;SDS011;15572;48.810;9.148;2024-01-15T07:16:54;8.30;;;4.37;;
28311;SDS011;15572;48.810;9.148;2024-01-15T07:21:52;12.17;;;5.97;;
28311;SDS011;15572;48.810;9.148;2024-01-15T07:26:48;10.07;;;5.17;;
28311;SDS011;15572;48.810;9.148;2024-01-15T07:31:47;13.37;;;6.87;;
28311;SDS011;15572;48.810;9.148;2024-01-15T07:36:44;13.40;;;6.70;;
28311;SDS011;15572;48.810;9.148;2024-01-15T07:41:42;11.37;;;5.43;;
28311;SDS011;15572;48.810;9.148;2024-01-15T07:46:39;7.17;;;3.77;;
28311;SDS011;15572;48.810;9.148;2024-01-15T07:51:36;12.23;;;5.90;;
28311;SDS011;15572;48.810;9.148;2024-01-15T07:56:32;16.87;;;6.80;;
28311;SDS011;15572;48.810;9.148;2024-01-15T08:01:30;12.97;;;5.90;;
28311;SDS011;15572;48.810;9.148;2024-01-15T08:06:27;12.73;;;6.70;;
28311;SDS011;15572;48.810;9.148;2024-01-15T08:11:23;12.37;;;6.40;;
28311;SDS011;15572;48.810;9.148;2024-01-15T08:16:19;14.93;;;6.83;;
28311;SDS011;15572;48.810;9.148;2024-01-15T08:21:17;13.47;;;6.73;;
28311;SDS011;15572;48.810;9.148;2024-01-15T08:26:14;15.43;;;6.93;;
28311;SDS011;15572;48.810;9.148;2024-01-15T08:31:10;14.37;;;6.43;;
28311;SDS011;15572;48.810;9.148;2024-01-15T08:36:07;11.33;;;6.43;;
28311;SDS011;15572;48.810;9.148;2024-01-15T08:41:05;11.00;;;6.20;;
28311;SDS011;15572;48.810;9.148;2024-01-15T08:46:03;10.93;;;5.60;;
28311;SDS011;15572;48.810;9.148;2024-01-15T08:50:59;9.90;;;4.77;;
28311;SDS011;15572;48.810;9.148;2024-01-15T08:55:56;9.50;;;5.03;;
28311;SDS011;15572;48.810;9.148;2024-01-15T09:00:53;10.33;;;5.20;;
28311;SDS011;15572;48.810;9.148;2024-01-15T09:05:50;8.00;;;4.23;;
28311;SDS011;15572;48.810;9.148;2024-01-15T09:10:46;7.80;;;3.67;;
28311;SDS011;15572;48.810;9.148;2024-01-15T09:15:43;8.33;;;4.20;;
28311;SDS011;15572;48.810;9.148;2024-01-15T09:20:41;8.20;;;4.80;;
28311;SDS011;15572;48.810;9.148;2024-01-15T09:25:37;10.80;;;4.47;;
28311;SDS011;15572;48.810;9.148;2024-01-15T09:30:33;11.67;;;4.40;;
28311;SDS011;15572;48.810;9.148;2024-01-15T09:35:30;9.57;;;4.63;;
28311;SDS011;15572;48.810;9.148;2024-01-15T09:40:28;8.80;;;5.00;;
28311;SDS011;15572;48.810;9.148;2024-01-15T09:45:28;8.60;;;3.97;;
28311;SDS011;15572;48.810;9.148;2024-01-15T09:50:25;10.90;;;4.53;;
28311;SDS011;15572;48.810;9.148;2024-01-15T09:55:22;9.60;;;4.40;;
28311;SDS011;15572;48.810;9.148;2024-01-15T10:00:20;9.63;;;4.50;;
28311;SDS011;15572;48.810;9.148;2024-01-15T10:05:17;8.17;;;3.50;;
28311;SDS011;15572;48.810;9.148;2024-01-15T10:10:13;9.10;;;4.60;;
28311;SDS011;15572;48.810;9.148;2024-01-15T10:15:10;7.60;;;4.30;;
28311;SDS011;15572;48.810;9.148;2024-01-15T10:20:09;8.83;;;4.23;;
28311;SDS011;15572;48.810;9.148;2024-01-15T10:25:09;10.53;;;4.83;;
28311;SDS011;15572;48.810;9.148;2024-01-15T10:30:06;4.87;;;2.90;;
28311;SDS011;15572;48.810;9.148;2024-01-15T10:35:04;8.25;;;5.30;;
28311;SDS011;15572;48.810;9.148;2024-01-15T10:40:05;7.03;;;4.30;;
28311;SDS011;15572;48.810;9.148;2024-01-15T10:45:03;6.63;;;4.65;;
28311;SDS011;15572;48.810;9.148;2024-01-15T10:49:59;6.85;;;4.80;;
28311;SDS011;15572;48.810;9.148;2024-01-15T10:54:57;7.20;;;5.00;;
28311;SDS011;15572;48.810;9.148;2024-01-15T10:59:56;8.70;;;5.72;;
28311;SDS011;15572;48.810;9.148;2024-01-15T11:04:53;6.93;;;4.25;;
28311;SDS011;15572;48.810;9.148;2024-01-15T11:09:50;4.23;;;2.40;;
28311;SDS011;15572;48.810;9.148;2024-01-15T11:14:46;4.33;;;2.93;;
28311;SDS011;15572;48.810;9.148;2024-01-15T11:19:45;3.97;;;2.63;;
28311;SDS011;15572;48.810;9.148;2024-01-15T11:24:43;5.40;;;2.13;;
28311;SDS011;15572;48.810;9.148;2024-01-15T11:29:39;8.77;;;4.63;;
28311;SDS011;15572;48.810;9.148;2024-01-15T11:34:59;8.33;;;4.33;;
28311;SDS011;15572;48.810;9.148;2024-01-15T11:40:00;10.00;;;4.67;;
28311;SDS011;15572;48.810;9.148;2024-01-15T11:44:58;9.83;;;4.80;;
28311;SDS011;15572;48.810;9.148;2024-01-15T11:50:00;7.67;;;3.83;;
28311;SDS011;15572;48.810;9.148;2024-01-15T11:55:10;5.50;;;3.20;;
28311;SDS011;15572;48.810;9.148;2024-01-15T12:00:09;8.57;;;4.70;;
28311;SDS011;15572;48.810;9.148;2024-01-15T12:05:08;9.60;;;4.83;;
28311;SDS011;15572;48.810;9.148;2024-01-15T12:10:07;8.17;;;4.90;;
28311;SDS011;15572;48.810;9.148;2024-01-15T12:15:05;8.37;;;4.13;;
28311;SDS011;15572;48.810;9.148;2024-01-15T12:20:02;9.00;;;4.07;;
28311;SDS011;15572;48.810;9.148;2024-01-15T12:25:00;6.37;;;3.40;;
28311;SDS011;15572;48.810;9.148;2024-01-15T12:29:57;8.50;;;4.83;;
28311;SDS011;15572;48.810;9.148;2024-01-15T12:34:54;4.73;;;2.47;;
28311;SDS011;15572;48.810;9.148;2024-01-15T12:39:51;10.60;;;4.73;;
28311;SDS011;15572;48.810;9.148;2024-01-15T12:44:51;6.57;;;3.73;;
28311;SDS011;15572;48.810;9.148;2024-01-15T12:49:47;8.60;;;4.60;;
28311;SDS011;15572;48.810;9.148;2024-01-15T12:54:48;8.93;;;4.70;;
28311;SDS011;15572;48.810;9.148;2024-01-15T12:59:45;7.73;;;4.23;;
28311;SDS011;15572;48.810;9.148;2024-01-15T13:04:43;9.23;;;4.77;;
28311;SDS011;15572;48.810;9.148;2024-01-15T13:09:40;8.37;;;4.50;;
28311;SDS011;15572;48.810;9.148;2024-01-15T13:14:36;5.07;;;3.20;;
28311;SDS011;15572;48.810;9.148;2024-01-15T13:19:33;7.63;;;3.60;;
28311;SDS011;15572;48.810;9.148;2024-01-15T13:24:30;4.30;;;2.40;;
28311;SDS011;15572;48.810;9.148;2024-01-15T13:29:27;6.77;;;3.63;;
28311;SDS011;15572;48.810;9.148;2024-01-15T13:34:23;5.87;;;2.83;;
28311;SDS011;15572;48.810;9.148;2024-01-15T13:39:19;4.80;;;2.40;;
28311;SDS011;15572;48.810;9.148;2024-01-15T13:44:17;2.70;;;1.93;;
28311;SDS011;15572;48.810;9.148;2024-01-15T13:49:14;4.90;;;2.73;;
28311;SDS011;15572;48.810;9.148;2024-01-15T13:54:10;6.47;;;3.50;;
28311;SDS011;15572;48.810;9.148;2024-01-15T13:59:07;4.10;;;2.60;;
28311;SDS011;15572;48.810;9.148;2024-01-15T14:04:05;6.40;;;3.30;;
28311;SDS011;15572;48.810;9.148;2024-01-15T14:09:02;8.50;;;4.07;;
28311;SDS011;15572;48.810;9.148;2024-01-15T14:13:59;5.00;;;3.60;;
28311;SDS011;15572;48.810;9.148;2024-01-15T14:18:56;5.90;;;3.87;;
28311;SDS011;15572;48.810;9.148;2024-01-15T14:23:53;9.83;;;4.03;;
28311;SDS011;15572;48.810;9.148;2024-01-15T14:28:50;8.20;;;4.60;;
28311;SDS011;15572;48.810;9.148;2024-01-15T14:33:47;7.83;;;4.53;;
28311;SDS011;15572;48.810;9.148;2024-01-15T14:38:43;6.47;;;4.70;;
28311;SDS011;15572;48.810;9.148;2024-01-15T14:43:41;8.47;;;5.63;;
28311;SDS011;15572;48.810;9.148;2024-01-15T14:48:37;12.43;;;6.67;;
28311;SDS011;15572;48.810;9.148;2024-01-15T14:53:35;4.93;;;3.27;;
28311;SDS011;15572;48.810;9.148;2024-01-15T14:58:31;10.43;;;6.90;;
28311;SDS011;15572;48.810;9.148;2024-01-15T15:03:29;10.90;;;6.77;;
28311;SDS011;15572;48.810;9.148;2024-01-15T15:08:25;10.47;;;6.60;;
28311;SDS011;15572;48.810;9.148;2024-01-15T15:13:22;11.47;;;7.07;;
28311;SDS011;15572;48.810;9.148;2024-01-15T15:18:20;11.90;;;6.67;;
28311;SDS011;15572;48.810;9.148;2024-01-15T15:23:18;14.67;;;8.03;;
28311;SDS011;15572;48.810;9.148;2024-01-15T15:28:15;9.70;;;5.87;;
28311;SDS011;15572;48.810;9.148;2024-01-15T15:33:11;11.83;;;6.83;;
28311;SDS011;15572;48.810;9.148;2024-01-15T15:38:08;6.40;;;4.23;;
28311;SDS011;15572;48.810;9.148;2024-01-15T15:43:05;10.20;;;5.90;;
28311;SDS011;15572;48.810;9.148;2024-01-15T15:48:02;7.40;;;4.73;;
28311;SDS011;15572;48.810;9.148;2024-01-15T15:52:59;3.87;;;2.67;;
28311;SDS011;15572;48.810;9.148;2024-01-15T15:57:56;8.83;;;5.10;;
28311;SDS011;15572;48.810;9.148;2024-01-15T16:02:54;12.87;;;6.80;;
28311;SDS011;15572;48.810;9.148;2024-01-15T16:07:51;10.77;;;4.70;;
28311;SDS011;15572;48.810;9.148;2024-01-15T16:12:47;10.87;;;5.83;;
28311;SDS011;15572;48.810;9.148;2024-01-15T16:17:44;6.83;;;3.67;;
28311;SDS011;15572;48.810;9.148;2024-01-15T16:22:41;9.67;;;5.97;;
28311;SDS011;15572;48.810;9.148;2024-01-15T16:27:38;9.30;;;5.03;;
28311;SDS011;15572;48.810;9.148;2024-01-15T16:32:36;9.87;;;6.40;;
28311;SDS011;15572;48.810;9.148;2024-01-15T16:37:32;7.73;;;4.60;;
28311;SDS011;15572;48.810;9.148;2024-01-15T16:42:30;10.80;;;5.97;;
28311;SDS011;15572;48.810;9.148;2024-01-15T16:47:26;9.13;;;5.20;;
28311;SDS011;15572;48.810;9.148;2024-01-15T16:52:23;4.83;;;3.27;;
28311;SDS011;15572;48.810;9.148;2024-01-15T16:57:19;9.27;;;3.73;;
28311;SDS011;15572;48.810;9.148;2024-01-15T17:02:17;8.07;;;4.13;;
28311;SDS011;15572;48.810;9.148;2024-01-15T17:07:13;6.07;;;4.00;;
28311;SDS011;15572;48.810;9.148;2024-01-15T17:12:10;6.97;;;4.00;;
28311;SDS011;15572;48.810;9.148;2024-01-15T17:17:06;9.37;;;5.07;;
28311;SDS011;15572;48.810;9.148;2024-01-15T17:22:04;7.93;;;4.30;;
28311;SDS011;15572;48.810;9.148;2024-01-15T17:27:00;11.63;;;5.57;;
28311;SDS011;15572;48.810;9.148;2024-01-15T17:31:57;11.23;;;6.20;;
28311;SDS011;15572;48.810;9.148;2024-01-15T17:36:53;11.53;;;6.00;;
28311;SDS011;15572;48.810;9.148;2024-01-15T17:41:51;8.67;;;5.50;;
28311;SDS011;15572;48.810;9.148;2024-01-15T17:46:47;10.90;;;6.13;;
28311;SDS011;15572;48.810;9.148;2024-01-15T17:51:44;9.73;;;6.07;;
28311;SDS011;15572;48.810;9.148;2024-01-15T17:56:42;10.33;;;5.30;;
28311;SDS011;15572;48.810;9.148;2024-01-15T18:01:39;10.10;;;4.90;;
28311;SDS011;15572;48.810;9.148;2024-01-15T18:06:38;7.80;;;4.87;;
28311;SDS011;15572;48.810;9.148;2024-01-15T18:11:36;6.00;;;4.17;;
28311;SDS011;15572;48.810;9.148;2024-01-15T18:16:32;6.37;;;3.30;;
28311;SDS011;15572;48.810;9.148;2024-01-15T18:21:30;8.10;;;4.90;;
28311;SDS011;15572;48.810;9.148;2024-01-15T18:26:26;7.63;;;4.73;;
28311;SDS011;15572;48.810;9.148;2024-01-15T18:31:23;10.43;;;5.73;;
28311;SDS011;15572;48.810;9.148;2024-01-15T18:36:19;9.10;;;5.17;;
28311;SDS011;15572;48.810;9.148;2024-01-15T18:41:21;7.40;;;4.47;;
28311;SDS011;15572;48.810;9.148;2024-01-15T18:46:19;4.47;;;3.20;;
28311;SDS011;15572;48.810;9.148;2024-01-15T18:51:19;9.33;;;4.37;;
28311;SDS011;15572;48.810;9.148;2024-01-15T18:56:16;9.37;;;4.57;;
28311;SDS011;15572;48.810;9.148;2024-01-15T19:01:24;4.77;;;3.30;;
28311;SDS011;15572;48.810;9.148;2024-01-15T19:06:22;7.47;;;3.80;;
28311;SDS011;15572;48.810;9.148;2024-01-15T19:11:19;2.73;;;2.30;;
28311;SDS011;15572;48.810;9.148;2024-01-15T19:16:17;3.60;;;2.43;;
28311;SDS011;15572;48.810;9.148;2024-01-15T19:21:16;5.63;;;3.27;;
28311;SDS011;15572;48.810;9.148;2024-01-15T19:26:16;4.23;;;2.80;;
28311;SDS011;15572;48.810;9.148;2024-01-15T19:31:13;6.70;;;3.50;;
28311;SDS011;15572;48.810;9.148;2024-01-15T19:36:19;6.87;;;2.33;;
28311;SDS011;15572;48.810;9.148;2024-01-15T19:41:17;5.70;;;3.33;;
28311;SDS011;15572;48.810;9.148;2024-01-15T19:46:13;7.63;;;3.93;;
28311;SDS011;15572;48.810;9.148;2024-01-15T19:51:10;7.73;;;3.60;;
28311;SDS011;15572;48.810;9.148;2024-01-15T19:56:08;4.67;;;3.07;;
28311;SDS011;15572;48.810;9.148;2024-01-15T20:01:04;3.87;;;2.03;;
28311;SDS011;15572;48.810;9.148;2024-01-15T20:06:01;4.03;;;2.83;;
28311;SDS011;15572;48.810;9.148;2024-01-15T20:10:58;7.83;;;3.80;;
28311;SDS011;15572;48.810;9.148;2024-01-15T20:15:55;6.20;;;3.23;;
28311;SDS011;15572;48.810;9.148;2024-01-15T20:20:52;3.33;;;2.80;;
28311;SDS011;15572;48.810;9.148;2024-01-15T20:25:48;4.17;;;2.07;;
28311;SDS011;15572;48.810;9.148;2024-01-15T20:30:45;6.77;;;3.47;;
28311;SDS011;15572;48.810;9.148;2024-01-15T20:35:43;5.17;;;3.10;;
28311;SDS011;15572;48.810;9.148;2024-01-15T20:40:39;5.23;;;2.77;;
28311;SDS011;15572;48.810;9.148;2024-01-15T20:45:36;3.57;;;2.20;;
28311;SDS011;15572;48.810;9.148;2024-01-15T20:50:32;5.40;;;2.43;;
28311;SDS011;15572;48.810;9.148;2024-01-15T20:55:30;7.83;;;3.57;;
28311;SDS011;15572;48.810;9.148;2024-01-15T21:00:26;4.07;;;2.53;;
28311;SDS011;15572;48.810;9.148;2024-01-15T21:05:23;8.47;;;3.10;;
28311;SDS011;15572;48.810;9.148;2024-01-15T21:10:19;5.63;;;3.10;;
28311;SDS011;15572;48.810;9.148;2024-01-15T21:15:17;9.37;;;3.67;;
28311;SDS011;15572;48.810;9.148;2024-01-15T21:20:14;5.40;;;3.13;;
28311;SDS011;15572;48.810;9.148;2024-01-15T21:25:10;7.63;;;3.60;;
28311;SDS011;15572;48.810;9.148;2024-01-15T21:30:08;8.03;;;3.50;;
28311;SDS011;15572;48.810;9.148;2024-01-15T21:35:09;2.80;;;2.27;;
28311;SDS011;15572;48.810;9.148;2024-01-15T21:40:07;5.10;;;3.40;;
28311;SDS011;15572;48.810;9.148;2024-01-15T21:45:05;5.97;;;3.17;;
28311;SDS011;15572;48.810;9.148;2024-01-15T21:50:04;6.00;;;3.30;;
28311;SDS011;15572;48.810;9.148;2024-01-15T21:55:02;6.50;;;3.37;;
28311;SDS011;15572;48.810;9.148;2024-01-15T21:59:58;3.33;;;2.50;;
28311;SDS011;15572;48.810;9.148;2024-01-15T22:04:55;4.63;;;2.33;;
28311;SDS011;15572;48.810;9.148;2024-01-15T22:09:52;5.30;;;2.20;;
28311;SDS011;15572;48.810;9.148;2024-01-15T22:14:50;3.10;;;2.23;;
28311;SDS011;15572;48.810;9.148;2024-01-15T22:19:46;4.83;;;3.13;;
28311;SDS011;15572;48.810;9.148;2024-01-15T22:24:42;2.27;;;1.93;;
28311;SDS011;15572;48.810;9.148;2024-01-15T22:29:39;4.13;;;2.07;;
28311;SDS011;15572;48.810;9.148;2024-01-15T22:34:36;7.13;;;2.90;;
28311;SDS011;15572;48.810;9.148;2024-01-15T22:39:33;4.90;;;2.70;;
28311;SDS011;15572;48.810;9.148;2024-01-15T22:44:29;5.97;;;2.90;;
28311;SDS011;15572;48.810;9.148;2024-01-15T22:49:26;4.80;;;3.03;;
28311;SDS011;15572;48.810;9.148;2024-01-15T22:54:23;4.93;;;3.13;;
28311;SDS011;15572;48.810;9.148;2024-01-15T22:59:20;5.10;;;3.30;;
28311;SDS011;15572;48.810;9.148;2024-01-15T23:04:17;4.00;;;2.50;;
28311;SDS011;15572;48.810;9.148;2024-01-15T23:09:13;3.23;;;2.33;;
28311;SDS011;15572;48.810;9.148;2024-01-15T23:14:11;7.87;;;3.13;;
28311;SDS011;15572;48.810;9.148;2024-01-15T23:19:07;4.77;;;3.07;;
28311;SDS011;15572;48.810;9.148;2024-01-15T23:24:04;4.57;;;3.07;;
28311;SDS011;15572;48.810;9.148;2024-01-15T23:29:02;5.67;;;2.80;;
28311;SDS011;15572;48.810;9.148;2024-01-15T23:34:01;6.07;;;3.30;;
28311;SDS011;15572;48.810;9.148;2024-01-15T23:39:00;5.37;;;3.33;;
28311;SDS011;15572;48.810;9.148;2024-01-15T23:43:56;5.13;;;3.20;;
28311;SDS011;15572;48.810;9.148;2024-01-15T23:48:53;4.67;;;3.20;;
28311;SDS011;15572;48.810;9.148;2024-01-15T23:53:52;3.87;;;2.73;;
28311;SDS011;15572;48.810;9.148;2024-01-15T23:58:48;4.70;;;2.70;;
